Muskego, WI (53150)

4:39 AM CDT on August 22, 2014 (GMT -0500)
KWIMUSKE3 | Change Station
CLOSE
Current Station
Personal Weather Station
Location: Muskego, WI
Elevation: 741 ft
Nearby Weather Stations
Active Advisory: Dense Fog Advisory

Elev 741 ft 42.89 °N, 88.14 °W | Updated 9 seconds ago

Fog
Fog
70.6 °F
Feels Like 70.6 °F
N
0.2
Wind Variable Wind from East
Gusts 0.7 mph

Today
High -- | Low -- °F
--% Chance of Precip.
Yesterday
High -- | Low -- °F
Precip. -- in
6:06 AM 7:43 PM
Waning Crescent, 9% visible
Pressure 29.93 in
Visibility 0.5 miles
Clouds Overcast 300 ft
Dew Point 70 °F
Humidity 99%
Rainfall 0.00 in
Snow Depth Not available.
UV 0 out of 12
Pollen 6.90 out of 12
Air Quality Not available.
Flu Activity Not available.
METAR KUES 220915Z AUTO 00000KT 1/2SM FG OVC003 20/20 A2993 RMK AO2

More Conditions Fewer Conditions

Pressure 29.93 in
Visibility 0.5 miles
Clouds Overcast 300 ft
Dew Point 70 °F
Humidity 99%
Rainfall 0.00 in
Snow Depth Not available.
UV 0 out of 12
Pollen 6.90 out of 12
Air Quality Not available.
Flu Activity Not available.
METAR KUES 220915Z AUTO 00000KT 1/2SM FG OVC003 20/20 A2993 RMK AO2

More Conditions Fewer Conditions

10-Day Weather Forecast

Almanac

Astronomy

Aug. 22, 2014 Rise Set
Actual Time 6:06 AM CDT 7:43 PM CDT
Civil Twilight 5:36 AM CDT 8:13 PM CDT
Nautical Twilight 4:59 AM CDT 8:49 PM CDT
Astronomical Twilight 4:21 AM CDT 9:28 PM CDT
Moon 3:26 AM CDT 5:53 PM CDT
Length of Visible Light 14h 37m
Length of Day
13h 37m
Tomorrow will be 2m 42s shorter.
Waning Crescent, 9% of the Moon is Illuminated
Today
Waning Crescent
Aug 25
New
Sep 2
First Quarter
Sep 8
Full
Sep 15
Last Quarter

Today's Extremes

State Highs State Lows

Community

WunderPhotos

Upload Photos

1,746,146 photos uploaded!

Nearby

Snow Depth

Station Depth Elevation
No new snow has been reported.

Earthquake Activity

City Distance Mag. Time & Date
No recent earthquake activity has been reported nearby.
Minimum magnitude displayed is 2.5.

Coastal Water Temperatures

Place Temperature
No Stations Reporting

Nearby Weather Stations